Terminal Aerodrome Forecast
Issued by NWS Greer, SC

Home | Current Version | Previous Version | Text Only | Print | Product List | Glossary On
Versions: 1 2 3 4 5 6 7 8 9 10 11 12 13 14 15 16 17
000
FTUS42 KGSP 021100
TAFGSP
TAF
KGSP 021130Z 0212/0312 23004KT P6SM SCT250
     FM021600 23006KT P6SM SCT060 BKN250
     FM022100 25006KT P6SM BKN060 PROB30 0221/0301 4SM TSRA BKN040CB
     FM030100 21004KT P6SM BKN060
     FM030500 00000KT P6SM BKN080=

USA.gov is the U.S. government's official web portal to all federal, state and local government web resources and services.